Time;durP1;ratioP1;P1;durP2;ratioP2;P2;SDS_P1;SDS_P2;PMS_P1;PMS_P2;Temp;Humidity;BMP_temperature;BMP_pressure;BME280_temperature;BME280_humidity;BME280_pressure;Samples;Min_cycle;Max_cycle;Signal;HPM_P1;HPM_P2
2022/03/08 00:01:55;;;;;;;14.05;5.80;;;3.50;99.90;;;;;;5029063;28;20022;-38
2022/03/08 00:04:20;;;;;;;9.05;5.68;;;3.50;99.90;;;;;;5022348;28;20103;-38
2022/03/08 00:06:46;;;;;;;16.05;5.82;;;3.40;99.90;;;;;;5018443;28;20096;-38
2022/03/08 00:09:12;;;;;;;11.25;5.45;;;3.40;99.90;;;;;;5022185;28;20021;-59
2022/03/08 00:11:38;;;;;;;15.05;5.72;;;3.40;99.90;;;;;;5023225;28;20426;-39
2022/03/08 00:14:03;;;;;;;9.70;5.80;;;3.30;99.90;;;;;;5025864;28;20552;-39
2022/03/08 00:16:29;;;;;;;12.23;6.03;;;3.40;99.90;;;;;;5015939;28;20084;-38
2022/03/08 00:18:55;;;;;;;11.02;5.85;;;3.30;99.90;;;;;;5024521;28;20041;-39
2022/03/08 00:21:20;;;;;;;12.20;5.75;;;3.30;99.90;;;;;;5029861;28;20080;-37
2022/03/08 00:23:47;;;;;;;13.38;5.53;;;3.30;99.90;;;;;;5019394;28;20029;-38
2022/03/08 00:26:13;;;;;;;8.02;4.85;;;3.30;99.90;;;;;;5017898;28;20064;-38
2022/03/08 00:28:39;;;;;;;16.50;6.93;;;3.20;99.90;;;;;;5016574;28;20065;-39
2022/03/08 00:31:04;;;;;;;11.35;5.45;;;3.20;99.90;;;;;;5029879;28;20470;-37
2022/03/08 00:33:30;;;;;;;8.80;5.10;;;3.20;99.90;;;;;;5013493;28;20061;-38
2022/03/08 00:35:56;;;;;;;14.23;6.00;;;3.20;99.90;;;;;;5015506;28;20026;-37
2022/03/08 00:38:21;;;;;;;13.40;5.18;;;3.10;99.90;;;;;;5016563;28;20033;-39
2022/03/08 00:40:47;;;;;;;11.43;5.30;;;3.00;99.90;;;;;;5017799;28;20025;-39
2022/03/08 00:43:13;;;;;;;12.23;5.78;;;3.10;99.90;;;;;;5020887;28;20021;-38
2022/03/08 00:45:39;;;;;;;9.10;5.28;;;3.20;99.90;;;;;;5021606;28;20029;-38
2022/03/08 00:48:05;;;;;;;17.98;6.53;;;3.10;99.90;;;;;;5028174;28;20049;-39
2022/03/08 00:50:31;;;;;;;10.90;4.80;;;3.20;99.90;;;;;;5026631;28;20026;-37
2022/03/08 00:52:58;;;;;;;7.75;4.38;;;3.20;99.90;;;;;;5022057;28;20485;-38
2022/03/08 00:55:26;;;;;;;10.35;5.03;;;3.20;99.90;;;;;;5021610;28;20048;-37
2022/03/08 00:57:52;;;;;;;9.15;4.78;;;3.20;99.90;;;;;;5015504;28;20057;-35
2022/03/08 01:00:21;;;;;;;10.38;5.00;;;3.30;99.90;;;;;;5032561;28;20141;-38
2022/03/08 01:02:47;;;;;;;9.13;4.35;;;3.20;99.90;;;;;;5032425;28;20079;-38
2022/03/08 01:05:13;;;;;;;8.98;3.67;;;3.30;99.90;;;;;;5029397;28;20041;-38
2022/03/08 01:07:39;;;;;;;8.45;4.45;;;3.30;99.90;;;;;;5025547;28;20026;-38
2022/03/08 01:10:08;;;;;;;12.02;4.25;;;3.30;99.90;;;;;;5029733;28;20052;-37
2022/03/08 01:12:34;;;;;;;9.60;4.18;;;3.40;99.90;;;;;;5032467;28;20059;-38
2022/03/08 01:15:01;;;;;;;8.32;4.35;;;3.40;99.90;;;;;;5032202;28;20030;-38
2022/03/08 01:17:27;;;;;;;11.57;4.00;;;3.50;99.90;;;;;;5032160;28;20029;-38
2022/03/08 01:19:53;;;;;;;6.70;4.03;;;3.50;99.90;;;;;;5031361;28;20029;-38
2022/03/08 01:22:19;;;;;;;7.25;3.95;;;3.50;99.90;;;;;;5032560;28;20037;-39
2022/03/08 01:24:44;;;;;;;7.88;3.60;;;3.50;99.90;;;;;;5031798;28;20033;-38
2022/03/08 01:27:10;;;;;;;4.72;3.70;;;3.50;99.90;;;;;;5031152;28;20095;-37
2022/03/08 01:29:36;;;;;;;7.20;3.78;;;3.50;99.90;;;;;;5032348;28;20434;-37
2022/03/08 01:32:02;;;;;;;7.00;3.63;;;3.50;99.90;;;;;;5034026;28;20029;-47
2022/03/08 01:34:28;;;;;;;7.75;4.15;;;3.50;99.90;;;;;;5033496;28;20485;-39
2022/03/08 01:36:54;;;;;;;12.68;3.83;;;3.50;99.90;;;;;;5027690;28;20033;-38
2022/03/08 01:39:21;;;;;;;7.63;3.60;;;3.40;99.90;;;;;;5036331;28;20037;-37
2022/03/08 01:41:47;;;;;;;5.30;3.40;;;3.50;99.90;;;;;;5030598;28;20557;-39
2022/03/08 01:44:12;;;;;;;7.05;4.07;;;3.50;99.90;;;;;;5034272;28;20141;-38
2022/03/08 01:46:38;;;;;;;8.00;3.72;;;3.50;99.90;;;;;;5018960;28;20479;-37
2022/03/08 01:49:06;;;;;;;5.95;3.88;;;3.50;99.90;;;;;;5016920;28;20119;-37
2022/03/08 01:51:33;;;;;;;5.45;2.92;;;3.50;99.90;;;;;;5017071;28;20029;-36
2022/03/08 01:53:59;;;;;;;11.13;3.33;;;3.50;99.90;;;;;;5033255;28;20095;-38
2022/03/08 01:56:24;;;;;;;7.28;3.13;;;3.50;99.90;;;;;;5033896;28;20080;-38
2022/03/08 01:58:50;;;;;;;5.82;3.30;;;3.60;99.90;;;;;;5036039;28;20021;-38
2022/03/08 02:01:15;;;;;;;5.72;3.35;;;3.70;99.90;;;;;;5032705;28;20118;-37
2022/03/08 02:03:41;;;;;;;5.68;3.13;;;3.60;99.90;;;;;;5033862;28;20029;-37
2022/03/08 02:06:07;;;;;;;11.38;3.35;;;3.60;99.90;;;;;;5029663;28;20100;-37
2022/03/08 02:08:32;;;;;;;5.95;3.58;;;3.60;99.90;;;;;;5035489;28;20482;-38
2022/03/08 02:10:59;;;;;;;7.18;3.40;;;3.60;99.90;;;;;;5030897;28;20409;-38
2022/03/08 02:13:26;;;;;;;5.63;3.53;;;3.60;99.90;;;;;;5032508;28;20026;-36
2022/03/08 02:15:52;;;;;;;6.07;3.40;;;3.60;99.90;;;;;;5024437;28;20386;-38
2022/03/08 02:18:19;;;;;;;5.50;3.20;;;3.70;99.90;;;;;;5028215;28;20052;-38
2022/03/08 02:20:45;;;;;;;7.13;3.35;;;3.60;99.90;;;;;;5030135;28;20053;-37
2022/03/08 02:23:11;;;;;;;7.28;3.30;;;3.70;99.90;;;;;;5033984;28;20085;-38
2022/03/08 02:25:37;;;;;;;6.50;3.25;;;3.60;99.90;;;;;;5025143;28;20022;-38
2022/03/08 02:28:03;;;;;;;4.80;3.05;;;3.60;99.90;;;;;;5016847;28;20485;-39
2022/03/08 02:30:28;;;;;;;3.90;2.90;;;3.60;99.90;;;;;;5030975;28;20026;-37
2022/03/08 02:32:55;;;;;;;4.85;3.25;;;3.60;99.90;;;;;;5019655;28;20045;-39
2022/03/08 02:35:23;;;;;;;4.07;3.17;;;3.50;99.90;;;;;;5033581;28;20473;-38
2022/03/08 02:37:54;;;;;;;3.92;2.70;;;3.60;99.90;;;;;;5018519;28;20026;-38
2022/03/08 02:40:24;;;;;;;5.15;2.97;;;3.60;99.90;;;;;;5029308;28;20520;-37
2022/03/08 02:42:51;;;;;;;5.93;3.60;;;3.60;99.90;;;;;;5017875;28;20022;-38
2022/03/08 02:45:17;;;;;;;4.60;3.53;;;3.60;99.90;;;;;;5029725;28;20065;-37
2022/03/08 02:47:43;;;;;;;6.40;3.00;;;3.60;99.90;;;;;;5035128;28;20029;-37
2022/03/08 02:50:12;;;;;;;6.85;2.95;;;3.60;99.90;;;;;;5034123;28;20021;-37
2022/03/08 02:52:40;;;;;;;2.65;2.45;;;3.60;99.90;;;;;;5025566;28;20160;-37
2022/03/08 02:55:08;;;;;;;12.38;3.38;;;3.50;99.90;;;;;;5020577;28;20347;-39
2022/03/08 02:57:33;;;;;;;4.60;3.03;;;3.60;99.90;;;;;;5020544;28;20371;-36
2022/03/08 03:00:00;;;;;;;6.80;2.90;;;3.60;99.90;;;;;;5015157;28;20026;-37
2022/03/08 03:02:26;;;;;;;4.88;2.97;;;3.60;99.90;;;;;;5015018;28;20052;-36
2022/03/08 03:04:51;;;;;;;5.28;3.17;;;3.60;99.90;;;;;;5021975;28;20033;-37
2022/03/08 03:07:17;;;;;;;5.45;3.15;;;3.60;99.90;;;;;;5024773;28;20491;-37
2022/03/08 03:09:43;;;;;;;6.78;3.00;;;3.50;99.90;;;;;;5031905;28;20037;-37
2022/03/08 03:12:09;;;;;;;4.10;3.00;;;3.50;99.90;;;;;;5028538;28;20037;-38
2022/03/08 03:14:35;;;;;;;5.93;3.53;;;3.50;99.90;;;;;;5031841;28;20021;-37
2022/03/08 03:17:01;;;;;;;6.93;3.53;;;3.40;99.90;;;;;;5024395;28;20048;-38
2022/03/08 03:19:26;;;;;;;5.60;3.10;;;3.40;99.90;;;;;;5022701;28;20034;-39
2022/03/08 03:21:52;;;;;;;7.50;3.90;;;3.40;99.90;;;;;;5019312;28;20397;-38
2022/03/08 03:24:17;;;;;;;5.82;3.50;;;3.30;99.90;;;;;;5032827;28;20021;-37
2022/03/08 03:26:43;;;;;;;6.10;2.90;;;3.30;99.90;;;;;;5021594;28;20038;-38
2022/03/08 03:29:09;;;;;;;4.85;3.20;;;3.30;99.90;;;;;;5026303;28;20071;-36
2022/03/08 03:31:35;;;;;;;6.22;3.58;;;3.30;99.90;;;;;;5021814;28;20022;-37
2022/03/08 03:34:01;;;;;;;5.50;2.90;;;3.30;99.90;;;;;;5027966;28;20024;-38
2022/03/08 03:36:26;;;;;;;6.32;3.50;;;3.30;99.90;;;;;;5017930;28;20026;-37
2022/03/08 03:38:53;;;;;;;5.00;3.67;;;3.30;99.90;;;;;;5014656;28;20029;-38
2022/03/08 03:41:18;;;;;;;5.40;3.35;;;3.30;99.90;;;;;;5028400;28;20119;-37
2022/03/08 03:43:44;;;;;;;5.10;3.05;;;3.20;99.90;;;;;;5033799;28;20061;-36
2022/03/08 03:46:10;;;;;;;5.53;2.80;;;3.20;99.90;;;;;;5024495;28;20025;-37
2022/03/08 03:48:35;;;;;;;3.70;2.90;;;3.10;99.90;;;;;;5029409;28;20030;-35
2022/03/08 03:51:02;;;;;;;9.50;3.33;;;3.10;99.90;;;;;;5012914;28;20196;-38
2022/03/08 03:53:27;;;;;;;4.93;3.22;;;3.10;99.90;;;;;;5016437;28;20025;-38
2022/03/08 03:55:53;;;;;;;7.32;3.00;;;3.00;99.90;;;;;;5029253;28;20032;-36
2022/03/08 03:58:19;;;;;;;5.35;3.13;;;3.00;99.90;;;;;;5014653;28;20029;-37
2022/03/08 04:00:44;;;;;;;4.20;2.88;;;3.00;99.90;;;;;;5022121;28;20029;-38
2022/03/08 04:03:10;;;;;;;8.40;3.30;;;3.00;99.90;;;;;;5026174;28;20105;-43
2022/03/08 04:05:35;;;;;;;6.10;3.83;;;3.10;99.90;;;;;;5028328;28;20482;-37
2022/03/08 04:08:01;;;;;;;5.93;3.05;;;3.10;99.90;;;;;;5032676;28;20037;-40
2022/03/08 04:10:27;;;;;;;4.97;2.97;;;3.10;99.90;;;;;;5031421;28;20030;-46
2022/03/08 04:12:52;;;;;;;5.03;3.50;;;3.00;99.90;;;;;;5026575;28;20048;-37
2022/03/08 04:15:18;;;;;;;6.43;3.35;;;3.10;99.90;;;;;;5028450;28;20481;-37
2022/03/08 04:17:43;;;;;;;7.00;3.05;;;3.10;99.90;;;;;;5033184;28;20060;-36
2022/03/08 04:20:10;;;;;;;6.45;3.53;;;3.10;99.90;;;;;;5026480;28;20418;-37
2022/03/08 04:22:36;;;;;;;6.30;3.60;;;3.10;99.90;;;;;;5033007;28;20040;-37
2022/03/08 04:25:03;;;;;;;6.88;2.95;;;3.10;99.90;;;;;;5026621;28;20435;-37
2022/03/08 04:27:29;;;;;;;6.50;3.47;;;3.10;99.90;;;;;;5026297;28;20034;-38
2022/03/08 04:29:54;;;;;;;4.50;2.97;;;3.10;99.90;;;;;;5022168;28;20029;-38
2022/03/08 04:32:20;;;;;;;4.95;2.85;;;3.10;99.90;;;;;;5021776;28;20037;-37
2022/03/08 04:34:46;;;;;;;3.95;2.88;;;3.10;99.90;;;;;;5032663;28;20497;-38
2022/03/08 04:37:11;;;;;;;4.47;2.80;;;3.10;99.90;;;;;;5030739;28;20024;-38
2022/03/08 04:39:37;;;;;;;5.72;3.10;;;3.00;99.90;;;;;;5026652;28;20478;-37
2022/03/08 04:42:03;;;;;;;4.15;2.50;;;3.00;99.90;;;;;;5014404;28;20026;-39
2022/03/08 04:44:28;;;;;;;5.07;3.00;;;3.00;99.90;;;;;;5013623;28;20026;-38
2022/03/08 04:46:54;;;;;;;4.35;3.28;;;3.00;99.90;;;;;;5019307;28;20037;-39
2022/03/08 04:49:20;;;;;;;3.80;2.85;;;3.00;99.90;;;;;;5032666;28;20102;-38
2022/03/08 04:51:45;;;;;;;6.70;2.95;;;3.00;99.90;;;;;;5031961;28;20020;-37
2022/03/08 04:54:11;;;;;;;5.22;2.75;;;3.10;99.90;;;;;;5027244;28;20033;-38
2022/03/08 04:56:37;;;;;;;4.30;2.83;;;3.00;99.90;;;;;;5027351;28;20032;-36
2022/03/08 04:59:04;;;;;;;6.13;3.42;;;3.00;99.90;;;;;;5030568;28;20493;-38
2022/03/08 05:01:29;;;;;;;5.32;3.20;;;3.00;99.90;;;;;;5032250;28;20040;-38
2022/03/08 05:03:55;;;;;;;7.32;3.10;;;3.00;99.90;;;;;;5018253;28;20033;-37
2022/03/08 05:06:20;;;;;;;6.75;2.95;;;3.00;99.90;;;;;;5031806;28;20040;-37
2022/03/08 05:08:46;;;;;;;5.25;3.00;;;3.00;99.90;;;;;;5028419;28;20041;-38
2022/03/08 05:11:12;;;;;;;7.45;3.42;;;3.00;99.90;;;;;;5025191;28;20056;-38
2022/03/08 05:13:38;;;;;;;5.30;2.72;;;3.00;99.90;;;;;;5032789;28;20030;-37
2022/03/08 05:16:04;;;;;;;4.32;2.78;;;3.00;99.90;;;;;;5031113;28;20543;-37
2022/03/08 05:18:30;;;;;;;4.78;3.47;;;2.90;99.90;;;;;;5032236;28;20024;-37
2022/03/08 05:20:56;;;;;;;3.42;2.92;;;2.90;99.90;;;;;;5029515;28;20022;-38
2022/03/08 05:23:21;;;;;;;6.40;2.83;;;2.90;99.90;;;;;;5021284;28;20034;-38
2022/03/08 05:25:47;;;;;;;10.25;3.20;;;2.90;99.90;;;;;;5017723;28;20010;-39
2022/03/08 05:28:13;;;;;;;6.00;3.45;;;2.90;99.90;;;;;;5029493;28;20111;-37
2022/03/08 05:30:39;;;;;;;5.38;3.28;;;2.90;99.90;;;;;;5032007;28;20032;-37
2022/03/08 05:33:04;;;;;;;4.60;2.60;;;2.90;99.90;;;;;;5029805;28;20030;-45
2022/03/08 05:35:30;;;;;;;3.28;2.55;;;2.80;99.90;;;;;;5027976;28;20028;-38
2022/03/08 05:37:56;;;;;;;6.18;3.17;;;2.90;99.90;;;;;;5028294;28;20037;-38
2022/03/08 05:40:21;;;;;;;2.95;2.38;;;2.90;99.90;;;;;;5027525;28;20037;-37
2022/03/08 05:42:47;;;;;;;6.05;3.13;;;2.90;99.90;;;;;;5027382;28;20029;-37
2022/03/08 05:45:13;;;;;;;9.70;3.58;;;2.90;99.90;;;;;;5029934;28;20029;-37
2022/03/08 05:47:40;;;;;;;4.82;2.92;;;2.90;99.90;;;;;;5031465;28;20076;-38
2022/03/08 05:50:08;;;;;;;6.63;3.67;;;2.80;99.90;;;;;;5031303;28;20025;-37
2022/03/08 05:52:33;;;;;;;5.18;3.38;;;2.90;99.90;;;;;;5032235;28;20096;-37
2022/03/08 05:54:59;;;;;;;8.27;3.78;;;2.90;99.90;;;;;;5028267;28;20052;-37
2022/03/08 05:57:43;;;;;;;5.22;3.08;;;2.80;99.90;;;;;;5026827;28;20028;-38
2022/03/08 06:00:10;;;;;;;5.78;3.28;;;2.80;99.90;;;;;;5021015;28;20030;-36
2022/03/08 06:02:36;;;;;;;6.78;3.35;;;2.80;99.90;;;;;;5028525;28;20025;-36
2022/03/08 06:05:01;;;;;;;6.18;3.50;;;2.80;99.90;;;;;;5028334;28;20021;-42
2022/03/08 06:07:27;;;;;;;5.18;3.20;;;2.80;99.90;;;;;;5025150;28;20030;-38
2022/03/08 06:09:52;;;;;;;9.80;3.60;;;2.70;99.90;;;;;;5017743;28;20026;-36
2022/03/08 06:12:18;;;;;;;4.90;2.88;;;2.70;99.90;;;;;;5020503;28;20045;-38
2022/03/08 06:14:44;;;;;;;5.18;3.25;;;2.70;99.90;;;;;;5012805;28;20065;-37
2022/03/08 06:17:09;;;;;;;11.98;3.17;;;2.70;99.90;;;;;;5013872;28;20091;-37
2022/03/08 06:19:35;;;;;;;18.45;3.55;;;2.70;99.90;;;;;;5034374;28;20032;-37
2022/03/08 06:22:01;;;;;;;7.22;3.33;;;2.70;99.90;;;;;;5029224;28;20080;-36
2022/03/08 06:24:27;;;;;;;9.55;3.40;;;2.70;99.90;;;;;;5022595;28;20033;-36
2022/03/08 06:26:52;;;;;;;5.40;3.22;;;2.70;99.90;;;;;;5033922;28;20140;-37
2022/03/08 06:29:18;;;;;;;4.97;3.17;;;2.80;99.90;;;;;;5033833;28;20040;-38
2022/03/08 06:31:43;;;;;;;5.25;3.05;;;2.80;99.90;;;;;;5016916;28;20022;-37
2022/03/08 06:34:09;;;;;;;5.45;3.28;;;2.80;99.90;;;;;;5016509;28;20025;-37
2022/03/08 06:36:36;;;;;;;5.28;2.78;;;2.80;99.90;;;;;;5020876;28;20430;-37
2022/03/08 06:39:03;;;;;;;3.15;2.80;;;2.90;99.90;;;;;;5025947;28;20034;-39
2022/03/08 06:41:28;;;;;;;5.95;3.20;;;3.00;99.90;;;;;;5028450;28;20022;-36
2022/03/08 06:43:54;;;;;;;7.88;3.20;;;3.10;99.90;;;;;;5027174;28;20405;-37
2022/03/08 06:46:20;;;;;;;9.55;3.42;;;3.20;99.90;;;;;;5034320;28;20057;-37
2022/03/08 06:48:45;;;;;;;8.93;3.55;;;3.20;99.90;;;;;;5033838;28;20030;-37
2022/03/08 06:51:11;;;;;;;6.30;2.88;;;3.20;99.90;;;;;;5028205;28;20030;-37
2022/03/08 06:53:37;;;;;;;5.72;3.50;;;3.30;99.90;;;;;;5026432;28;20112;-36
2022/03/08 06:56:05;;;;;;;8.23;3.17;;;3.30;99.90;;;;;;5028197;28;20052;-38
2022/03/08 06:58:31;;;;;;;6.50;3.30;;;3.20;99.90;;;;;;5031131;28;20148;-36
2022/03/08 07:00:56;;;;;;;7.65;3.20;;;3.30;99.90;;;;;;5034550;28;20052;-35
2022/03/08 07:03:22;;;;;;;4.60;2.95;;;3.40;99.90;;;;;;5029352;28;20033;-39
2022/03/08 07:05:48;;;;;;;5.25;3.05;;;3.50;99.90;;;;;;5018933;28;20030;-41
2022/03/08 07:08:13;;;;;;;5.72;3.40;;;3.50;99.90;;;;;;5015132;28;20076;-56
2022/03/08 07:10:39;;;;;;;5.95;3.05;;;3.50;99.90;;;;;;5022282;28;20034;-38
2022/03/08 07:13:05;;;;;;;3.95;2.63;;;3.50;99.90;;;;;;5025754;28;20045;-37
2022/03/08 07:15:31;;;;;;;4.72;3.47;;;3.60;99.90;;;;;;5031619;28;20031;-38
2022/03/08 07:17:56;;;;;;;6.53;3.17;;;3.60;99.90;;;;;;5024814;28;20445;-39
2022/03/08 07:20:23;;;;;;;8.45;3.38;;;3.60;99.90;;;;;;5033611;28;20401;-39
2022/03/08 07:22:48;;;;;;;4.07;3.00;;;3.60;99.90;;;;;;5034106;28;20075;-37
2022/03/08 07:25:15;;;;;;;4.80;3.35;;;3.70;99.90;;;;;;5027728;28;20029;-37
2022/03/08 07:27:41;;;;;;;5.43;2.97;;;3.70;99.90;;;;;;5034226;28;20022;-37
2022/03/08 07:30:08;;;;;;;6.10;3.25;;;3.80;99.90;;;;;;5030913;28;20083;-36
2022/03/08 07:32:34;;;;;;;9.60;3.17;;;3.90;99.90;;;;;;5014716;28;20033;-38
2022/03/08 07:35:00;;;;;;;6.97;3.78;;;3.90;99.90;;;;;;5021268;28;20532;-37
2022/03/08 07:37:25;;;;;;;5.78;3.00;;;3.90;99.90;;;;;;5022858;28;20033;-36
2022/03/08 07:39:52;;;;;;;5.28;3.42;;;3.90;99.90;;;;;;5022895;28;20037;-38
2022/03/08 07:42:18;;;;;;;6.10;3.80;;;4.00;99.90;;;;;;5027023;28;20021;-38
2022/03/08 07:44:44;;;;;;;9.23;3.95;;;4.00;99.90;;;;;;5020473;28;20497;-38
2022/03/08 07:47:09;;;;;;;4.18;3.13;;;4.20;99.90;;;;;;5029604;28;20054;-37
2022/03/08 07:49:35;;;;;;;3.90;3.13;;;4.30;99.70;;;;;;5015123;28;20417;-38
2022/03/08 07:52:01;;;;;;;38.50;15.65;;;4.30;99.70;;;;;;5027535;28;20080;-38
2022/03/08 07:54:27;;;;;;;8.63;5.57;;;4.30;99.60;;;;;;5020162;28;20061;-49
2022/03/08 07:56:53;;;;;;;9.35;5.13;;;4.40;99.60;;;;;;5027325;28;20501;-39
2022/03/08 07:59:19;;;;;;;7.60;4.85;;;4.50;99.30;;;;;;5030457;28;20033;-39
2022/03/08 08:01:44;;;;;;;48.58;18.80;;;4.50;99.00;;;;;;5032537;28;20033;-38
2022/03/08 08:04:10;;;;;;;139.00;44.03;;;4.50;99.10;;;;;;5030184;28;20030;-41
2022/03/08 08:06:36;;;;;;;50.42;20.13;;;4.60;99.00;;;;;;5014662;28;20033;-37
2022/03/08 08:09:03;;;;;;;11.18;5.90;;;4.70;99.00;;;;;;5024412;28;20064;-38
2022/03/08 08:11:29;;;;;;;14.03;5.57;;;4.70;98.80;;;;;;5031271;28;20037;-39
2022/03/08 08:13:54;;;;;;;34.25;13.30;;;4.80;98.80;;;;;;5024544;28;20292;-38
2022/03/08 08:16:20;;;;;;;7.60;5.07;;;4.80;98.80;;;;;;5014679;28;20108;-38
2022/03/08 08:18:46;;;;;;;6.40;4.32;;;4.90;98.60;;;;;;5028766;28;20071;-39
2022/03/08 08:21:13;;;;;;;11.32;5.45;;;4.90;98.70;;;;;;5016453;28;20101;-37
2022/03/08 08:23:38;;;;;;;4.72;3.35;;;5.00;98.40;;;;;;5022880;28;20502;-38
2022/03/08 08:26:04;;;;;;;7.30;4.35;;;5.10;98.10;;;;;;5013845;28;20022;-36
2022/03/08 08:28:29;;;;;;;6.22;4.15;;;5.20;98.20;;;;;;5018825;28;20041;-38
2022/03/08 08:30:55;;;;;;;6.82;4.88;;;5.20;98.20;;;;;;5016165;28;20537;-38
2022/03/08 08:33:21;;;;;;;10.52;5.07;;;5.30;98.20;;;;;;5018954;28;20048;-38
2022/03/08 08:35:46;;;;;;;5.45;3.25;;;5.30;98.00;;;;;;5030512;28;20026;-38
2022/03/08 08:38:12;;;;;;;10.48;3.58;;;5.40;98.10;;;;;;5017989;28;20418;-51
2022/03/08 08:40:37;;;;;;;4.85;3.15;;;5.40;97.90;;;;;;5018374;28;20071;-38
2022/03/08 08:43:05;;;;;;;6.05;3.30;;;5.40;98.30;;;;;;5020873;28;20030;-40
2022/03/08 08:45:31;;;;;;;8.30;3.50;;;5.50;98.10;;;;;;5029872;28;20489;-38
2022/03/08 08:47:57;;;;;;;4.97;3.35;;;5.50;97.90;;;;;;5029747;28;20040;-37
2022/03/08 08:50:23;;;;;;;5.32;3.28;;;5.70;98.10;;;;;;5032520;28;20033;-38
2022/03/08 08:52:49;;;;;;;6.43;3.40;;;5.70;97.80;;;;;;5019341;28;20026;-38
2022/03/08 08:55:14;;;;;;;4.97;3.17;;;5.80;97.70;;;;;;5024302;28;20077;-38
2022/03/08 08:57:40;;;;;;;5.40;3.22;;;5.80;98.10;;;;;;5013382;28;20079;-35
2022/03/08 09:00:08;;;;;;;7.65;3.33;;;5.90;97.80;;;;;;5026311;28;20037;-39
2022/03/08 09:02:34;;;;;;;3.25;2.17;;;6.00;97.90;;;;;;5020157;28;20030;-39
2022/03/08 09:05:00;;;;;;;7.05;3.40;;;6.00;97.60;;;;;;5031459;28;20029;-39
2022/03/08 09:07:25;;;;;;;4.22;3.00;;;6.10;97.10;;;;;;5012884;28;20073;-37
2022/03/08 09:09:51;;;;;;;5.35;2.85;;;6.10;97.10;;;;;;5030966;28;20092;-39
2022/03/08 09:12:17;;;;;;;4.10;3.13;;;6.00;97.10;;;;;;5031034;28;20466;-39
2022/03/08 09:14:43;;;;;;;7.43;3.80;;;6.10;97.30;;;;;;5024948;28;20497;-39
2022/03/08 09:17:08;;;;;;;5.82;3.35;;;6.20;97.10;;;;;;5031670;28;20034;-38
2022/03/08 09:19:34;;;;;;;4.75;3.70;;;6.30;97.20;;;;;;5021766;28;20442;-38
2022/03/08 09:22:00;;;;;;;4.95;3.13;;;6.40;96.60;;;;;;5032744;28;20032;-40
2022/03/08 09:24:26;;;;;;;4.18;2.90;;;6.50;97.00;;;;;;5028378;28;20052;-51
2022/03/08 09:26:51;;;;;;;6.22;2.60;;;6.70;96.50;;;;;;5032612;28;20485;-40
2022/03/08 09:29:17;;;;;;;3.13;2.83;;;6.80;96.00;;;;;;5024861;28;20033;-38
2022/03/08 09:31:43;;;;;;;9.25;3.22;;;6.80;96.60;;;;;;5017608;28;20471;-39
2022/03/08 09:34:09;;;;;;;5.10;3.30;;;6.90;96.50;;;;;;5024020;28;20075;-39
2022/03/08 09:36:37;;;;;;;3.50;3.00;;;7.10;96.00;;;;;;5021390;28;20049;-38
2022/03/08 09:39:04;;;;;;;4.25;3.33;;;7.00;96.20;;;;;;5012647;28;20426;-39
2022/03/08 09:41:30;;;;;;;13.65;3.60;;;7.00;96.20;;;;;;5017892;28;20535;-39
2022/03/08 09:43:57;;;;;;;7.63;3.80;;;7.10;95.60;;;;;;5025401;28;20101;-37
2022/03/08 09:46:22;;;;;;;6.25;3.42;;;7.20;95.70;;;;;;5021735;28;20029;-39
2022/03/08 09:48:49;;;;;;;12.65;3.50;;;7.30;96.30;;;;;;5012844;28;20034;-38
2022/03/08 09:51:16;;;;;;;9.15;3.92;;;7.30;96.20;;;;;;5021183;28;20018;-38
2022/03/08 09:53:43;;;;;;;6.28;3.67;;;7.40;95.20;;;;;;5023791;28;20026;-40
2022/03/08 09:56:09;;;;;;;5.00;3.72;;;7.30;96.00;;;;;;5025674;28;20022;-39
2022/03/08 09:58:37;;;;;;;5.28;3.20;;;7.30;95.90;;;;;;5021362;28;20373;-39
2022/03/08 10:01:04;;;;;;;3.35;3.00;;;7.30;95.90;;;;;;5023058;28;20085;-38
2022/03/08 10:03:40;;;;;;;10.30;3.38;;;7.40;95.50;;;;;;5028070;28;20417;-39
2022/03/08 10:06:08;;;;;;;6.70;3.50;;;7.50;95.10;;;;;;5034407;28;20030;-39
2022/03/08 10:08:34;;;;;;;6.20;3.20;;;7.40;95.20;;;;;;5032696;28;20102;-38
2022/03/08 10:11:05;;;;;;;4.60;3.22;;;7.50;95.70;;;;;;5016366;28;20126;-38
2022/03/08 10:13:35;;;;;;;9.45;3.92;;;7.60;95.30;;;;;;5029780;28;20228;-37
2022/03/08 10:16:05;;;;;;;7.38;3.70;;;7.70;95.60;;;;;;5033880;28;20372;-39
2022/03/08 10:18:33;;;;;;;7.50;3.45;;;7.90;95.00;;;;;;5030324;28;20580;-44
2022/03/08 10:20:58;;;;;;;5.03;3.30;;;8.00;95.30;;;;;;5023911;28;20018;-37
2022/03/08 10:23:24;;;;;;;7.25;3.85;;;8.00;94.60;;;;;;5027243;28;20780;-40
2022/03/08 10:25:49;;;;;;;6.50;3.55;;;8.10;94.80;;;;;;5031814;28;20398;-39
2022/03/08 10:28:15;;;;;;;7.22;3.72;;;8.00;94.50;;;;;;5035358;28;20017;-39
2022/03/08 10:30:44;;;;;;;6.07;3.60;;;8.10;94.70;;;;;;5035599;28;20072;-40
2022/03/08 10:33:10;;;;;;;6.07;3.58;;;8.10;94.60;;;;;;5032215;28;20028;-47
2022/03/08 10:35:42;;;;;;;6.32;3.38;;;8.20;94.60;;;;;;5026497;28;20057;-37
2022/03/08 10:38:12;;;;;;;8.48;3.25;;;8.30;94.80;;;;;;5017002;28;20105;-42
2022/03/08 10:40:39;;;;;;;7.57;3.38;;;8.40;95.00;;;;;;5018906;28;20474;-40
2022/03/08 10:43:07;;;;;;;3.97;3.35;;;8.60;94.00;;;;;;5015390;28;20033;-39
2022/03/08 10:45:36;;;;;;;5.43;2.80;;;8.70;93.80;;;;;;5024958;28;20028;-40
2022/03/08 10:48:07;;;;;;;5.68;2.75;;;8.70;94.00;;;;;;5034921;28;20385;-38
2022/03/08 10:50:34;;;;;;;8.38;3.15;;;8.80;93.40;;;;;;5030306;28;20030;-40
2022/03/08 10:53:02;;;;;;;4.28;3.38;;;8.80;93.30;;;;;;5024941;28;20028;-39
2022/03/08 10:55:31;;;;;;;10.75;3.67;;;8.80;93.90;;;;;;5022298;28;20013;-41
2022/03/08 10:58:00;;;;;;;9.57;3.42;;;8.90;93.60;;;;;;5025447;28;20034;-39
2022/03/08 11:00:32;;;;;;;4.85;3.13;;;9.00;93.40;;;;;;5024638;28;20437;-40
2022/03/08 11:03:02;;;;;;;4.40;3.15;;;9.00;93.10;;;;;;5023862;28;20472;-40
2022/03/08 11:05:34;;;;;;;7.18;3.17;;;9.10;93.00;;;;;;5024816;28;20037;-39
2022/03/08 11:08:00;;;;;;;4.50;2.92;;;9.20;92.90;;;;;;5028169;28;20022;-41
2022/03/08 11:10:28;;;;;;;4.45;2.90;;;9.20;93.10;;;;;;5016568;28;20471;-40
2022/03/08 11:12:54;;;;;;;6.50;3.97;;;9.40;92.70;;;;;;5029721;28;20116;-42
2022/03/08 11:15:21;;;;;;;5.38;3.53;;;9.50;92.60;;;;;;5031258;28;20053;-38
2022/03/08 11:17:50;;;;;;;4.38;3.53;;;9.70;92.60;;;;;;5025253;28;20013;-38
2022/03/08 11:20:17;;;;;;;5.00;3.08;;;9.80;92.70;;;;;;5027047;28;20091;-38
2022/03/08 11:22:44;;;;;;;2.35;2.15;;;9.90;91.20;;;;;;5023666;28;20033;-38
2022/03/08 11:25:12;;;;;;;3.53;3.17;;;9.90;90.50;;;;;;5020681;28;20121;-37
2022/03/08 11:27:41;;;;;;;13.70;4.25;;;9.80;90.50;;;;;;5025808;28;20525;-38
2022/03/08 11:30:08;;;;;;;;;;;9.80;91.10;;;;;;5020287;28;20033;-40
2022/03/08 11:32:50;;;;;;;;;;;9.90;90.60;;;;;;5025012;28;19960;-39
2022/03/08 11:35:28;;;;;;;5.75;3.13;;;9.80;90.20;;;;;;5024765;28;19932;-35
2022/03/08 11:37:54;;;;;;;11.23;3.60;;;9.80;91.00;;;;;;5027019;28;20025;-40
2022/03/08 11:40:21;;;;;;;3.60;2.80;;;9.80;90.20;;;;;;5031202;28;20029;-41
2022/03/08 11:42:52;;;;;;;3.83;3.42;;;9.80;91.10;;;;;;5028912;28;20022;-39
2022/03/08 11:45:20;;;;;;;5.15;4.07;;;10.00;90.30;;;;;;5030429;28;20029;-39
2022/03/08 11:48:04;;;;;;;4.68;3.65;;;10.10;90.60;;;;;;5031162;28;20723;-41
2022/03/08 11:50:33;;;;;;;5.15;4.07;;;10.20;90.90;;;;;;5015716;28;20220;-40
2022/03/08 11:53:09;;;;;;;7.60;5.45;;;10.20;90.70;;;;;;5029162;28;20426;-39
2022/03/08 11:55:36;;;;;;;6.18;3.88;;;10.30;90.60;;;;;;5030545;28;20028;-39
2022/03/08 11:58:13;;;;;;;6.53;3.40;;;10.40;90.60;;;;;;5030032;28;20022;-38
2022/03/08 12:00:42;;;;;;;4.07;3.53;;;10.50;90.90;;;;;;5025281;28;20022;-39
2022/03/08 12:03:10;;;;;;;4.32;2.78;;;10.50;90.00;;;;;;5022490;28;20667;-38
2022/03/08 12:05:39;;;;;;;3.17;2.88;;;10.50;88.50;;;;;;5031095;28;20033;-40
2022/03/08 12:08:26;;;;;;;7.32;2.75;;;10.40;89.80;;;;;;5021864;28;20494;-38
2022/03/08 12:11:03;;;;;;;3.28;2.40;;;10.50;89.60;;;;;;5028024;28;20033;-48
2022/03/08 12:13:35;;;;;;;3.55;2.67;;;10.60;90.30;;;;;;5033257;28;20073;-38
2022/03/08 12:16:07;;;;;;;3.47;2.63;;;10.70;88.30;;;;;;5032375;28;20088;-40
2022/03/08 12:18:36;;;;;;;14.75;2.92;;;10.60;89.80;;;;;;5032372;28;20050;-40
2022/03/08 12:21:17;;;;;;;6.78;3.17;;;10.70;90.10;;;;;;5032710;28;20489;-41
2022/03/08 12:23:53;;;;;;;2.75;2.33;;;10.90;89.20;;;;;;5033639;28;20387;-40
2022/03/08 12:26:23;;;;;;;5.70;3.10;;;11.00;87.90;;;;;;5033237;28;20029;-41
2022/03/08 12:29:13;;;;;;;3.85;2.75;;;10.90;87.30;;;;;;5030380;28;20029;-39
2022/03/08 12:31:57;;;;;;;5.95;2.67;;;11.00;89.60;;;;;;5024291;28;20504;-40
2022/03/08 12:34:39;;;;;;;3.53;3.00;;;11.10;87.50;;;;;;5029265;28;20033;-40
2022/03/08 12:37:07;;;;;;;3.15;2.90;;;11.20;87.30;;;;;;5028778;28;20028;-39
2022/03/08 12:40:08;;;;;;;4.97;3.13;;;11.10;86.10;;;;;;5031819;28;20045;-39
2022/03/08 12:42:40;;;;;;;4.47;2.95;;;10.90;86.70;;;;;;5024636;28;20026;-40
2022/03/08 12:45:13;;;;;;;3.35;2.70;;;11.00;89.30;;;;;;5023245;28;20028;-40
2022/03/08 12:47:43;;;;;;;4.28;2.90;;;11.20;87.90;;;;;;5028632;28;20022;-41
2022/03/08 12:50:23;;;;;;;3.05;2.55;;;11.40;88.60;;;;;;5028096;28;20034;-40
2022/03/08 12:52:56;;;;;;;6.18;3.42;;;11.50;86.80;;;;;;5027288;28;20022;-40
2022/03/08 12:55:28;;;;;;;12.45;4.10;;;11.50;86.30;;;;;;5030682;28;20032;-39